createdAt,value
2016-05-05T00:00:06.039Z,8.51
2016-05-05T00:01:05.932Z,8.6
2016-05-05T00:02:06.123Z,8.55
2016-05-05T00:03:06.156Z,8.53
2016-05-05T00:04:06.190Z,8.53
2016-05-05T00:05:06.224Z,8.46
2016-05-05T00:06:06.102Z,8.38
2016-05-05T00:07:06.277Z,8.51
2016-05-05T00:08:06.294Z,8.45
2016-05-05T00:09:06.189Z,8.52
2016-05-05T00:10:06.378Z,8.55
2016-05-05T00:11:06.397Z,8.49
2016-05-05T00:12:06.415Z,8.64
2016-05-05T00:13:06.480Z,8.53
2016-05-05T00:14:06.499Z,8.61
2016-05-05T00:15:06.516Z,8.55
2016-05-05T00:16:06.394Z,8.66
2016-05-05T00:17:06.584Z,8.52
2016-05-05T00:18:06.619Z,8.61
2016-05-05T00:19:06.652Z,8.58
2016-05-05T00:20:06.687Z,8.55
2016-05-05T00:21:06.705Z,8.46
2016-05-05T00:22:06.738Z,8.7
2016-05-05T00:23:06.616Z,8.55
2016-05-05T00:24:06.666Z,8.58
2016-05-05T00:25:06.700Z,8.64
2016-05-05T00:26:06.874Z,8.63
2016-05-05T00:27:06.893Z,8.53
2016-05-05T00:28:06.942Z,8.53
2016-05-05T00:29:06.961Z,8.45
2016-05-05T00:30:06.994Z,8.45
2016-05-05T00:31:07.045Z,8.44
2016-05-05T00:32:06.906Z,8.38
2016-05-05T00:33:06.939Z,8.26
2016-05-05T00:34:06.959Z,8.24
2016-05-05T00:35:06.992Z,8.2
2016-05-05T00:36:07.198Z,8.23
2016-05-05T00:37:07.092Z,8.19
2016-05-05T00:38:07.266Z,8.36
2016-05-05T00:39:07.644Z,8.26
2016-05-05T00:40:07.333Z,8.38
2016-05-05T00:41:07.352Z,8.37
2016-05-05T00:42:07.386Z,8.45
2016-05-05T00:43:07.405Z,8.36
2016-05-05T00:44:07.438Z,8.37
2016-05-05T00:45:07.472Z,8.38
2016-05-05T00:46:07.506Z,8.38
2016-05-05T00:47:07.541Z,8.48
2016-05-05T00:48:07.574Z,8.46
2016-05-05T00:49:07.608Z,8.36
2016-05-05T00:50:07.626Z,8.41
2016-05-05T00:51:07.489Z,8.36
2016-05-05T00:52:07.694Z,8.34
2016-05-05T00:53:07.729Z,8.38
2016-05-05T00:54:07.840Z,8.46
2016-05-05T00:55:07.812Z,8.48
2016-05-05T00:56:07.659Z,8.36
2016-05-05T00:57:07.849Z,8.18
2016-05-05T00:58:07.711Z,8.15
2016-05-05T00:59:07.901Z,8.19
2016-05-05T01:00:07.950Z,8.23
2016-05-05T01:01:07.812Z,8.2
2016-05-05T01:02:07.846Z,8.15
2016-05-05T01:03:07.880Z,8.1
2016-05-05T01:04:08.070Z,8.1
2016-05-05T01:05:08.089Z,8.08
2016-05-05T01:06:08.139Z,8.16
2016-05-05T01:07:08.172Z,8.26
2016-05-05T01:08:08.034Z,8.13
2016-05-05T01:09:08.755Z,8.13
2016-05-05T01:10:08.242Z,8.19
2016-05-05T01:11:08.277Z,8.13
2016-05-05T01:12:08.310Z,7.95
2016-05-05T01:13:08.344Z,7.87
2016-05-05T01:14:08.363Z,7.63
2016-05-05T01:15:08.397Z,7.67
2016-05-05T01:16:08.275Z,7.47
2016-05-05T01:17:08.308Z,7.54
2016-05-05T01:18:08.499Z,7.58
2016-05-05T01:19:08.220Z,7.47
2016-05-05T01:20:08.566Z,7.39
2016-05-05T01:21:08.601Z,7.47
2016-05-05T01:22:08.635Z,7.58
2016-05-05T01:23:08.668Z,7.48
2016-05-05T01:24:09.171Z,7.45
2016-05-05T01:25:08.721Z,7.36
2016-05-05T01:26:08.755Z,7.38
2016-05-05T01:27:08.773Z,7.39
2016-05-05T01:28:08.807Z,7.39
2016-05-05T01:29:08.840Z,7.51
2016-05-05T01:30:08.875Z,7.36
2016-05-05T01:31:08.924Z,7.36
2016-05-05T01:32:08.943Z,7.39
2016-05-05T01:33:08.976Z,7.31
2016-05-05T01:34:08.854Z,7.4
2016-05-05T01:35:09.029Z,7.38
2016-05-05T01:36:08.907Z,7.45
2016-05-05T01:37:09.097Z,7.48
2016-05-05T01:38:09.115Z,7.51
2016-05-05T01:39:09.149Z,7.48
2016-05-05T01:40:09.183Z,7.36
2016-05-05T01:41:09.217Z,7.51
2016-05-05T01:42:09.251Z,7.5
2016-05-05T01:43:09.285Z,7.48
2016-05-05T01:44:09.288Z,7.6
2016-05-05T01:45:09.337Z,7.5
2016-05-05T01:46:09.355Z,7.61
2016-05-05T01:47:09.232Z,7.51
2016-05-05T01:48:09.423Z,7.63
2016-05-05T01:49:09.488Z,7.5
2016-05-05T01:50:09.335Z,7.51
2016-05-05T01:51:09.510Z,7.43
2016-05-05T01:52:09.564Z,7.43
2016-05-05T01:53:09.640Z,7.5
2016-05-05T01:54:09.717Z,7.57
2016-05-05T01:55:09.794Z,7.57
2016-05-05T01:56:09.854Z,7.56
2016-05-05T01:57:09.918Z,7.4
2016-05-05T01:58:09.982Z,7.39
2016-05-05T01:59:10.016Z,7.42
2016-05-05T02:00:10.065Z,7.5
2016-05-05T02:01:10.100Z,7.5
2016-05-05T02:02:10.144Z,7.58
2016-05-05T02:03:10.184Z,7.54
2016-05-05T02:04:44.566Z,7.36
2016-05-05T02:05:09.936Z,7.5
2016-05-05T02:06:10.131Z,7.39
2016-05-05T02:07:10.325Z,7.5
2016-05-05T02:08:10.205Z,7.43
2016-05-05T02:09:10.413Z,7.42
2016-05-05T02:10:10.261Z,7.4
2016-05-05T02:11:10.468Z,7.48
2016-05-05T02:12:10.504Z,7.38
2016-05-05T02:13:10.539Z,7.39
2016-05-05T02:14:10.541Z,7.31
2016-05-05T02:15:10.421Z,7.05
2016-05-05T02:16:10.626Z,7.11
2016-05-05T02:17:10.646Z,6.96
2016-05-05T02:18:10.665Z,6.92
2016-05-05T02:19:10.543Z,6.87
2016-05-05T02:20:10.733Z,6.89
2016-05-05T02:21:10.767Z,6.81
2016-05-05T02:22:10.803Z,6.88
2016-05-05T02:23:10.838Z,6.93
2016-05-05T02:24:10.574Z,7.05
2016-05-05T02:25:10.905Z,6.93
2016-05-05T02:26:10.907Z,6.97
2016-05-05T02:27:10.957Z,6.95
2016-05-05T02:28:10.992Z,7.06
2016-05-05T02:29:11.026Z,6.99
2016-05-05T02:30:11.044Z,6.92
2016-05-05T02:31:11.062Z,6.89
2016-05-05T02:32:11.112Z,6.93
2016-05-05T02:33:11.130Z,7
2016-05-05T02:34:11.179Z,6.97
2016-05-05T02:35:11.198Z,6.89
2016-05-05T02:36:11.231Z,6.84
2016-05-05T02:37:11.250Z,6.89
2016-05-05T02:38:11.300Z,6.82
2016-05-05T02:39:11.334Z,6.88
2016-05-05T02:40:11.337Z,6.81
2016-05-05T02:41:11.386Z,6.89
2016-05-05T02:42:11.405Z,6.66
2016-05-05T02:43:11.438Z,6.79
2016-05-05T02:44:11.317Z,6.7
2016-05-05T02:45:11.491Z,6.78
2016-05-05T02:46:11.368Z,6.7
2016-05-05T02:47:11.418Z,6.69
2016-05-05T02:48:11.608Z,6.54
2016-05-05T02:49:11.626Z,6.51
2016-05-05T02:50:11.677Z,6.42
2016-05-05T02:51:11.679Z,6.6
2016-05-05T02:52:11.728Z,6.57
2016-05-05T02:53:11.730Z,6.41
2016-05-05T02:54:12.108Z,6.36
2016-05-05T02:55:11.815Z,6.44
2016-05-05T02:56:11.849Z,6.45
2016-05-05T02:57:11.866Z,6.52
2016-05-05T02:58:11.901Z,6.57
2016-05-05T02:59:11.919Z,6.66
2016-05-05T03:00:11.954Z,6.69
2016-05-05T03:01:11.987Z,6.7
2016-05-05T03:02:12.021Z,6.72
2016-05-05T03:03:11.882Z,6.72
2016-05-05T03:04:12.073Z,6.74
2016-05-05T03:05:12.107Z,6.6
2016-05-05T03:06:12.156Z,6.57
2016-05-05T03:07:12.175Z,6.6
2016-05-05T03:08:12.037Z,6.41
2016-05-05T03:09:12.087Z,6.31
2016-05-05T03:10:12.261Z,6.42
2016-05-05T03:11:12.278Z,6.41
2016-05-05T03:12:12.313Z,6.48
2016-05-05T03:13:12.363Z,6.52
2016-05-05T03:14:12.381Z,6.6
2016-05-05T03:15:12.399Z,6.63
2016-05-05T03:16:12.292Z,6.6
2016-05-05T03:17:12.311Z,6.49
2016-05-05T03:18:12.189Z,6.42
2016-05-05T03:19:12.536Z,6.54
2016-05-05T03:20:12.569Z,6.48
2016-05-05T03:21:12.587Z,6.45
2016-05-05T03:22:12.621Z,6.33
2016-05-05T03:23:12.483Z,6.56
2016-05-05T03:24:12.533Z,6.51
2016-05-05T03:25:12.708Z,6.3
2016-05-05T03:26:12.585Z,6.39
2016-05-05T03:27:12.776Z,6.39
2016-05-05T03:28:12.809Z,6.38
2016-05-05T03:29:12.672Z,6.38
2016-05-05T03:30:12.877Z,6.39
2016-05-05T03:31:12.739Z,6.51
2016-05-05T03:32:12.914Z,6.48
2016-05-05T03:33:12.963Z,6.28
2016-05-05T03:34:12.982Z,6.22
2016-05-05T03:35:13.016Z,6.28
2016-05-05T03:36:13.034Z,6.22
2016-05-05T03:37:12.912Z,6.17
2016-05-05T03:38:13.087Z,6.12
2016-05-05T03:39:13.261Z,6.11
2016-05-05T03:40:13.170Z,5.94
2016-05-05T03:41:13.188Z,6.02
2016-05-05T03:42:13.222Z,6.17
2016-05-05T03:43:13.256Z,6.01
2016-05-05T03:44:13.306Z,6.19
2016-05-05T03:45:13.308Z,5.98
2016-05-05T03:46:13.342Z,6.12
2016-05-05T03:47:13.376Z,6.08
2016-05-05T03:48:13.411Z,6.08
2016-05-05T03:49:13.272Z,6.2
2016-05-05T03:50:13.462Z,6.22
2016-05-05T03:51:13.496Z,6.33
2016-05-05T03:52:13.530Z,6.38
2016-05-05T03:53:13.548Z,6.3
2016-05-05T03:54:13.644Z,6.26
2016-05-05T03:55:13.601Z,6.36
2016-05-05T03:56:13.635Z,6.17
2016-05-05T03:57:13.669Z,6.22
2016-05-05T03:58:13.546Z,6.11
2016-05-05T03:59:13.721Z,6.22
2016-05-05T04:00:13.754Z,6.08
2016-05-05T04:01:13.788Z,6.01
2016-05-05T04:02:13.823Z,6.12
2016-05-05T04:03:13.856Z,6.17
2016-05-05T04:04:13.875Z,6.24
2016-05-05T04:05:13.909Z,6.16
2016-05-05T04:06:13.787Z,6.07
2016-05-05T04:07:13.977Z,6.01
2016-05-05T04:08:13.839Z,6.2
2016-05-05T04:09:14.045Z,6.26
2016-05-05T04:10:14.047Z,6.26
2016-05-05T04:11:15.065Z,6.14
2016-05-05T04:12:14.115Z,6.19
2016-05-05T04:13:14.150Z,6.16
2016-05-05T04:14:14.167Z,6.12
2016-05-05T04:15:14.233Z,6.05
2016-05-05T04:16:14.251Z,6.08
2016-05-05T04:17:14.270Z,6.24
2016-05-05T04:18:14.131Z,6.09
2016-05-05T04:19:14.166Z,6.02
2016-05-05T04:20:14.355Z,5.98
2016-05-05T04:21:14.233Z,5.83
2016-05-05T04:22:14.424Z,6.04
2016-05-05T04:23:14.129Z,6.19
2016-05-05T04:24:14.491Z,6.26
2016-05-05T04:25:14.510Z,6.35
2016-05-05T04:26:14.372Z,6.36
2016-05-05T04:27:14.406Z,6.46
2016-05-05T04:28:14.596Z,6.44
2016-05-05T04:29:14.630Z,6.35
2016-05-05T04:30:14.648Z,6.42
2016-05-05T04:31:14.682Z,6.39
2016-05-05T04:32:14.716Z,6.57
2016-05-05T04:33:14.734Z,6.72
2016-05-05T04:34:14.768Z,6.88
2016-05-05T04:35:14.645Z,7.06
2016-05-05T04:36:14.837Z,7.18
2016-05-05T04:37:14.870Z,7.23
2016-05-05T04:38:14.732Z,7.35
2016-05-05T04:39:14.938Z,7.38
2016-05-05T04:40:14.940Z,7.35
2016-05-05T04:41:14.975Z,7.31
2016-05-05T04:42:15.024Z,7.31
2016-05-05T04:43:15.042Z,7.05
2016-05-05T04:44:14.920Z,7.03
2016-05-05T04:45:15.111Z,7.05
2016-05-05T04:46:14.973Z,7.03
2016-05-05T04:47:15.162Z,6.95
2016-05-05T04:48:15.196Z,6.97
2016-05-05T04:49:15.231Z,6.96
2016-05-05T04:50:15.249Z,6.99
2016-05-05T04:51:15.283Z,6.92
2016-05-05T04:52:15.332Z,6.99
2016-05-05T04:53:15.351Z,7.05
2016-05-05T04:54:15.713Z,7.11
2016-05-05T04:55:15.402Z,7.28
2016-05-05T04:56:15.437Z,7.33
2016-05-05T04:57:15.471Z,7.29
2016-05-05T04:58:15.348Z,7.38
2016-05-05T04:59:15.539Z,7.32
2016-05-05T05:00:15.557Z,7.48
2016-05-05T05:01:15.591Z,7.39
2016-05-05T05:02:15.625Z,7.42
2016-05-05T05:03:15.659Z,7.48
2016-05-05T05:04:15.692Z,7.47
2016-05-05T05:05:15.710Z,7.61
2016-05-05T05:06:15.746Z,7.5
2016-05-05T05:07:15.763Z,7.36
2016-05-05T05:08:15.813Z,7.47
2016-05-05T05:09:16.175Z,7.57
2016-05-05T05:10:15.865Z,7.57
2016-05-05T05:11:15.726Z,7.6
2016-05-05T05:12:15.934Z,7.8
2016-05-05T05:13:15.811Z,7.8
2016-05-05T05:14:15.985Z,7.8
2016-05-05T05:15:16.035Z,7.88
2016-05-05T05:16:16.069Z,7.72
2016-05-05T05:17:16.086Z,7.87
2016-05-05T05:18:16.105Z,7.88
2016-05-05T05:19:16.139Z,7.91
2016-05-05T05:20:16.173Z,7.85
2016-05-05T05:21:16.208Z,7.83
2016-05-05T05:22:16.241Z,7.97
2016-05-05T05:23:16.119Z,7.88
2016-05-05T05:24:17.184Z,7.8
2016-05-05T05:25:16.343Z,7.9
2016-05-05T05:26:16.361Z,7.87
2016-05-05T05:27:16.394Z,7.9
2016-05-05T05:28:16.272Z,7.87
2016-05-05T05:29:16.463Z,8.06
2016-05-05T05:30:16.482Z,8.08
2016-05-05T05:31:16.515Z,8.15
2016-05-05T05:32:16.408Z,8.16
2016-05-05T05:33:16.583Z,8.33
2016-05-05T05:34:16.617Z,8.37
2016-05-05T05:35:16.651Z,8.42
2016-05-05T05:36:16.669Z,8.36
2016-05-05T05:37:16.687Z,8.38
2016-05-05T05:38:16.424Z,8.36
2016-05-05T05:39:16.818Z,8.49
2016-05-05T05:40:16.805Z,8.49
2016-05-05T05:41:16.823Z,8.52
2016-05-05T05:42:16.701Z,8.49
2016-05-05T05:43:16.891Z,8.52
2016-05-05T05:44:16.925Z,8.55
2016-05-05T05:45:16.959Z,8.55
2016-05-05T05:46:16.993Z,8.69
2016-05-05T05:47:17.027Z,8.58
2016-05-05T05:48:17.045Z,8.66
2016-05-05T05:49:17.079Z,8.78
2016-05-05T05:50:17.113Z,8.76
2016-05-05T05:51:16.991Z,8.84
2016-05-05T05:52:17.009Z,9
2016-05-05T05:53:17.043Z,9.02
2016-05-05T05:54:17.124Z,9.04
2016-05-05T05:55:17.267Z,9.13
2016-05-05T05:56:17.129Z,9.1
2016-05-05T05:57:17.163Z,9.08
2016-05-05T05:58:17.353Z,9.16
2016-05-05T05:59:17.388Z,9.26
2016-05-05T06:00:17.421Z,9.14
2016-05-05T06:01:17.455Z,9.29
2016-05-05T06:02:17.473Z,9.46
2016-05-05T06:03:17.507Z,9.4
2016-05-05T06:04:17.541Z,9.47
2016-05-05T06:05:17.576Z,9.54
2016-05-05T06:06:17.610Z,9.47
2016-05-05T06:07:17.627Z,9.51
2016-05-05T06:08:17.661Z,9.41
2016-05-05T06:09:17.789Z,9.4
2016-05-05T06:10:17.730Z,9.47
2016-05-05T06:11:17.607Z,9.48
2016-05-05T06:12:17.797Z,9.61
2016-05-05T06:13:17.831Z,9.58
2016-05-05T06:14:17.865Z,9.62
2016-05-05T06:15:17.898Z,9.72
2016-05-05T06:16:17.917Z,9.69
2016-05-05T06:17:17.951Z,9.74
2016-05-05T06:18:17.985Z,9.76
2016-05-05T06:19:17.863Z,9.91
2016-05-05T06:20:18.053Z,9.8
2016-05-05T06:21:18.072Z,9.83
2016-05-05T06:22:17.964Z,9.94
2016-05-05T06:23:18.149Z,9.89
2016-05-05T06:24:18.183Z,9.94
2016-05-05T06:25:18.201Z,10.05
2016-05-05T06:26:18.095Z,10.04
2016-05-05T06:27:18.254Z,10.1
2016-05-05T06:28:18.303Z,10.15
2016-05-05T06:29:18.181Z,10.15
2016-05-05T06:30:18.355Z,10.34
2016-05-05T06:31:18.390Z,10.37
2016-05-05T06:32:18.440Z,10.4
2016-05-05T06:33:18.457Z,10.34
2016-05-05T06:34:18.491Z,10.4
2016-05-05T06:35:18.525Z,10.42
2016-05-05T06:36:18.559Z,10.37
2016-05-05T06:37:18.593Z,10.4
2016-05-05T06:38:18.455Z,10.51
2016-05-05T06:39:19.161Z,10.56
2016-05-05T06:40:18.679Z,10.6
2016-05-05T06:41:18.713Z,10.68
2016-05-05T06:42:18.748Z,10.74
2016-05-05T06:43:18.765Z,10.71
2016-05-05T06:44:18.800Z,10.75
2016-05-05T06:45:18.833Z,10.78
2016-05-05T06:46:18.898Z,10.87
2016-05-05T06:47:18.933Z,10.86
2016-05-05T06:48:18.935Z,10.96
2016-05-05T06:49:18.969Z,11.1
2016-05-05T06:50:19.003Z,11.05
2016-05-05T06:51:19.036Z,11.02
2016-05-05T06:52:19.071Z,11.1
2016-05-05T06:53:19.105Z,11.11
2016-05-05T06:54:19.139Z,11.12
2016-05-05T06:55:19.172Z,11.1
2016-05-05T06:56:19.207Z,11.23
2016-05-05T06:57:19.225Z,11.27
2016-05-05T06:58:19.259Z,11.22
2016-05-05T06:59:19.293Z,11.25
2016-05-05T07:00:19.326Z,11.25
2016-05-05T07:01:19.361Z,11.23
2016-05-05T07:02:19.238Z,11.29
2016-05-05T07:03:19.273Z,11.35
2016-05-05T07:04:19.463Z,11.36
2016-05-05T07:05:19.482Z,11.52
2016-05-05T07:06:19.531Z,11.47
2016-05-05T07:07:19.549Z,11.51
2016-05-05T07:08:19.582Z,11.52
2016-05-05T07:09:19.757Z,11.54
2016-05-05T07:10:19.667Z,11.6
2016-05-05T07:11:19.684Z,11.52
2016-05-05T07:12:19.718Z,11.55
2016-05-05T07:13:19.737Z,11.66
2016-05-05T07:14:19.787Z,11.7
2016-05-05T07:15:19.805Z,11.78
2016-05-05T07:16:19.838Z,11.81
2016-05-05T07:17:19.889Z,11.94
2016-05-05T07:18:19.906Z,11.83
2016-05-05T07:19:19.644Z,11.9
2016-05-05T07:20:19.974Z,11.9
2016-05-05T07:21:20.008Z,11.9
2016-05-05T07:22:19.886Z,12.04
2016-05-05T07:23:20.076Z,12.1
2016-05-05T07:24:20.500Z,12.06
2016-05-05T07:25:20.144Z,12.17
2016-05-05T07:26:20.163Z,12.17
2016-05-05T07:27:20.212Z,12.12
2016-05-05T07:28:20.230Z,12.25
2016-05-05T07:29:20.264Z,12.46
2016-05-05T07:30:20.314Z,12.75
2016-05-05T07:31:20.332Z,12.6
2016-05-05T07:32:20.366Z,12.75
2016-05-05T07:33:20.400Z,12.85
2016-05-05T07:34:20.277Z,12.85
2016-05-05T07:35:20.468Z,12.79
2016-05-05T07:36:20.362Z,12.76
2016-05-05T07:37:20.551Z,13.12
2016-05-05T07:38:20.585Z,13.47
2016-05-05T07:39:20.478Z,13.62
2016-05-05T07:40:20.638Z,13.9
2016-05-05T07:41:20.671Z,14.2
2016-05-05T07:42:20.705Z,14.12
2016-05-05T07:43:20.740Z,14.26
2016-05-05T07:44:20.773Z,14.45
2016-05-05T07:45:20.807Z,14.58
2016-05-05T07:46:20.841Z,15.17
2016-05-05T07:47:20.891Z,15.84
2016-05-05T07:48:20.909Z,16.57
2016-05-05T07:49:20.942Z,17.22
2016-05-05T07:50:20.978Z,17.83
2016-05-05T07:51:21.027Z,18.63
2016-05-05T07:52:21.045Z,17.92
2016-05-05T07:53:21.094Z,17.94
2016-05-05T07:54:21.066Z,17.87
2016-05-05T07:55:21.021Z,18.53
2016-05-05T07:56:21.180Z,19.16
2016-05-05T07:57:21.277Z,19.62
2016-05-05T07:58:21.108Z,19.47
2016-05-05T07:59:21.158Z,19.69
2016-05-05T08:00:21.347Z,19.94
2016-05-05T08:01:21.382Z,20
2016-05-05T08:02:21.415Z,19.86
2016-05-05T08:03:21.465Z,20.11
2016-05-05T08:04:21.515Z,20.75
2016-05-05T08:05:21.533Z,20.92
2016-05-05T08:06:21.583Z,21.24
2016-05-05T08:07:21.616Z,20.02
2016-05-05T08:08:21.509Z,19.56
2016-05-05T08:09:21.560Z,18.92
2016-05-05T08:10:21.593Z,19.74
2016-05-05T08:11:21.471Z,19.47
2016-05-05T08:12:21.817Z,19.33
2016-05-05T08:13:21.867Z,19.88
2016-05-05T08:14:21.901Z,19.92
2016-05-05T08:15:21.951Z,19.51
2016-05-05T08:16:21.984Z,19.55
2016-05-05T08:17:22.049Z,20.18
2016-05-05T08:18:22.068Z,20.13
2016-05-05T08:19:22.102Z,20.22
2016-05-05T08:20:22.167Z,20.6
2016-05-05T08:21:22.201Z,20.95
2016-05-05T08:22:22.079Z,21.76
2016-05-05T08:23:22.284Z,21.69
2016-05-05T08:24:22.303Z,21.76
2016-05-05T08:25:22.383Z,21.33
2016-05-05T08:26:22.417Z,21.33
2016-05-05T08:27:22.467Z,21.6
2016-05-05T08:28:22.502Z,21.62
2016-05-05T08:29:22.535Z,22.29
2016-05-05T08:30:22.585Z,21.8
2016-05-05T08:31:22.494Z,21.2
2016-05-05T08:32:22.683Z,21.11
2016-05-05T08:33:22.733Z,21.17
2016-05-05T08:34:22.768Z,21.83
2016-05-05T08:35:22.660Z,22.15
2016-05-05T08:36:22.694Z,21.82
2016-05-05T08:37:22.916Z,21.27
2016-05-05T08:38:22.949Z,21.15
2016-05-05T08:39:24.343Z,21.83
2016-05-05T08:40:22.876Z,22.02
2016-05-05T08:41:22.926Z,21.82
2016-05-05T08:42:22.976Z,21.51
2016-05-05T08:43:23.182Z,20.9
2016-05-05T08:44:23.215Z,21.02
2016-05-05T08:45:23.266Z,20.72
2016-05-05T08:46:23.143Z,20.25
2016-05-05T08:47:23.348Z,20.03
2016-05-05T08:48:23.398Z,20.21
2016-05-05T08:49:23.448Z,20.09
2016-05-05T08:50:23.482Z,20.29
2016-05-05T08:51:23.531Z,20.11
2016-05-05T08:52:23.566Z,18.65
2016-05-05T08:53:23.615Z,18.6
2016-05-05T08:54:23.664Z,18.74
2016-05-05T08:55:23.714Z,19.02
2016-05-05T08:56:23.748Z,19.21
2016-05-05T08:57:23.626Z,18.49
2016-05-05T08:58:23.847Z,18.13
2016-05-05T08:59:23.927Z,17.23
2016-05-05T09:00:23.775Z,17.06
2016-05-05T09:01:23.966Z,17.33
2016-05-05T09:02:24.013Z,17.72
2016-05-05T09:03:24.064Z,17.8
2016-05-05T09:04:24.098Z,18.11
2016-05-05T09:05:24.147Z,18.37
2016-05-05T09:06:24.040Z,18.33
2016-05-05T09:07:24.231Z,18.04
2016-05-05T09:08:24.265Z,17.42
2016-05-05T09:09:24.752Z,17.29
2016-05-05T09:10:24.348Z,17.78
2016-05-05T09:11:24.382Z,18.99
2016-05-05T09:12:24.432Z,19.59
2016-05-05T09:13:24.482Z,20
2016-05-05T09:14:24.515Z,19.69
2016-05-05T09:15:24.549Z,20.29
2016-05-05T09:16:24.599Z,20.26
2016-05-05T09:17:24.634Z,20.28
2016-05-05T09:18:24.681Z,20.41
2016-05-05T09:19:24.717Z,20.1
2016-05-05T09:20:24.766Z,21
2016-05-05T09:21:24.800Z,21.2
2016-05-05T09:22:24.834Z,20.85
2016-05-05T09:23:24.899Z,19.92
2016-05-05T09:24:24.933Z,20.36
2016-05-05T09:25:24.966Z,20.59
2016-05-05T09:26:24.704Z,20.66
2016-05-05T09:27:25.066Z,20.6
2016-05-05T09:28:25.100Z,20.39
2016-05-05T09:29:25.134Z,21.09
2016-05-05T09:30:25.216Z,21.29
2016-05-05T09:31:25.223Z,21.75
2016-05-05T09:32:25.682Z,21.76
2016-05-05T09:33:25.169Z,21.09
2016-05-05T09:34:25.358Z,20.21
2016-05-05T09:35:25.408Z,21.32
2016-05-05T09:36:25.442Z,21.05
2016-05-05T09:37:25.491Z,21.39
2016-05-05T09:38:25.524Z,21.93
2016-05-05T09:39:26.294Z,22.15
2016-05-05T09:40:25.609Z,22.2
2016-05-05T09:41:25.658Z,21.43
2016-05-05T09:42:25.718Z,21.82
2016-05-05T09:43:25.752Z,21.55
2016-05-05T09:44:25.786Z,21.54
2016-05-05T09:45:25.850Z,21.54
2016-05-05T09:46:25.885Z,21.46
2016-05-05T09:47:25.762Z,21.92
2016-05-05T09:48:27.265Z,21.61
2016-05-05T09:49:26.003Z,22.04
2016-05-05T09:50:26.067Z,22.08
2016-05-05T09:51:26.101Z,21.64
2016-05-05T09:52:26.151Z,21.83
2016-05-05T09:53:26.060Z,22.08
2016-05-05T09:54:25.938Z,20.9
2016-05-05T09:55:26.300Z,21.32
2016-05-05T09:56:26.333Z,21.06
2016-05-05T09:57:26.383Z,21.32
2016-05-05T09:58:26.433Z,20.92
2016-05-05T09:59:26.482Z,21.79
2016-05-05T10:00:26.532Z,21.36
2016-05-05T10:01:26.566Z,21.8
2016-05-05T10:02:26.615Z,20.99
2016-05-05T10:03:26.665Z,20.75
2016-05-05T10:04:26.714Z,20.55
2016-05-05T10:05:26.748Z,20.37
2016-05-05T10:06:26.657Z,21.43
2016-05-05T10:07:26.848Z,21.88
2016-05-05T10:08:26.881Z,21.82
2016-05-05T10:09:27.228Z,21.37
2016-05-05T10:10:28.027Z,21.39
2016-05-05T10:11:26.873Z,21.77
2016-05-05T10:12:27.080Z,21.79
2016-05-05T10:13:27.114Z,22.1
2016-05-05T10:14:27.162Z,22.45
2016-05-05T10:15:27.041Z,23.1
2016-05-05T10:16:27.262Z,23.32
2016-05-05T10:17:27.295Z,23.13
2016-05-05T10:18:27.362Z,22.66
2016-05-05T10:19:27.723Z,22.93
2016-05-05T10:20:27.444Z,22.5
2016-05-05T10:21:27.354Z,22.84
2016-05-05T10:22:27.372Z,23.23
2016-05-05T10:23:27.594Z,22.57
2016-05-05T10:24:27.846Z,21.6
2016-05-05T10:25:27.677Z,21.98
2016-05-05T10:26:27.555Z,22.54
2016-05-05T10:27:27.777Z,22.45
2016-05-05T10:28:28.607Z,22.06
2016-05-05T10:29:27.875Z,22.06
2016-05-05T10:30:27.909Z,21.75
2016-05-05T10:31:27.958Z,21.77
2016-05-05T10:32:28.009Z,21.76
2016-05-05T10:33:28.058Z,21.37
2016-05-05T10:34:28.108Z,21.4
2016-05-05T10:35:28.141Z,21.39
2016-05-05T10:36:28.191Z,21.27
2016-05-05T10:37:28.241Z,21.91
2016-05-05T10:38:28.306Z,22.47
2016-05-05T10:39:28.840Z,22.45
2016-05-05T10:40:28.232Z,22.5
2016-05-05T10:41:28.282Z,22.84
2016-05-05T10:42:28.473Z,22.84
2016-05-05T10:43:28.366Z,23.17
2016-05-05T10:44:28.572Z,23.62
2016-05-05T10:45:28.621Z,22.88
2016-05-05T10:46:28.671Z,22.38
2016-05-05T10:47:28.737Z,21.09
2016-05-05T10:48:28.770Z,21.58
2016-05-05T10:49:28.804Z,22.41
2016-05-05T10:50:28.869Z,22.39
2016-05-05T10:51:28.747Z,22.44
2016-05-05T10:52:28.953Z,22.83
2016-05-05T10:53:29.002Z,22.18
2016-05-05T10:54:31.130Z,22.26
2016-05-05T10:55:29.633Z,22.78
2016-05-05T10:56:29.245Z,22.99
2016-05-05T10:57:29.200Z,21.43
2016-05-05T10:58:29.267Z,20.5
2016-05-05T10:59:29.359Z,20.81
2016-05-05T11:00:29.452Z,21.6
2016-05-05T11:01:29.546Z,22.08
2016-05-05T11:02:29.655Z,22.44
2016-05-05T11:03:29.712Z,22.99
2016-05-05T11:04:29.778Z,22.47
2016-05-05T11:05:29.686Z,21.83
2016-05-05T11:06:29.909Z,21.79
2016-05-05T11:07:29.973Z,21.3
2016-05-05T11:08:30.017Z,21.93
2016-05-05T11:09:29.947Z,22.39
2016-05-05T11:10:29.986Z,22.72
2016-05-05T11:11:30.041Z,22.81
2016-05-05T11:12:30.236Z,22.35
2016-05-05T11:13:30.132Z,21.37
2016-05-05T11:14:30.356Z,21.36
2016-05-05T11:15:30.391Z,20.74
2016-05-05T11:16:30.443Z,20.52
2016-05-05T11:17:30.509Z,21.37
2016-05-05T11:18:30.389Z,22.07
2016-05-05T11:19:30.595Z,22.51
2016-05-05T11:20:30.645Z,21.99
2016-05-05T11:21:30.680Z,21.98
2016-05-05T11:22:30.730Z,22.02
2016-05-05T11:23:30.777Z,22.38
2016-05-05T11:24:30.843Z,22.39
2016-05-05T11:25:30.721Z,22.5
2016-05-05T11:26:30.927Z,22.84
2016-05-05T11:27:30.977Z,22.83
2016-05-05T11:28:31.027Z,22.84
2016-05-05T11:29:30.920Z,22.17
2016-05-05T11:30:31.125Z,22.8
2016-05-05T11:31:31.020Z,23.59
2016-05-05T11:32:31.226Z,23.37
2016-05-05T11:33:31.119Z,22.73
2016-05-05T11:34:31.152Z,22.3
2016-05-05T11:35:31.374Z,22.88
2016-05-05T11:36:31.267Z,22.88
2016-05-05T11:37:31.473Z,22.51
2016-05-05T11:38:31.507Z,22.63
2016-05-05T11:39:31.401Z,22.02
2016-05-05T11:40:31.466Z,21.83
2016-05-05T11:41:31.516Z,21.95
2016-05-05T11:42:31.565Z,22.84
2016-05-05T11:43:31.771Z,23.23
2016-05-05T11:44:31.663Z,23.73
2016-05-05T11:45:31.871Z,23.92
2016-05-05T11:46:31.763Z,23.28
2016-05-05T11:47:31.969Z,23.78
2016-05-05T11:48:32.018Z,23.32
2016-05-05T11:49:32.068Z,23.12
2016-05-05T11:50:32.102Z,23.09
2016-05-05T11:51:32.167Z,23.06
2016-05-05T11:52:32.060Z,23.69
2016-05-05T11:53:32.251Z,23.28
2016-05-05T11:54:32.457Z,22.26
2016-05-05T11:55:32.366Z,22.53
2016-05-05T11:56:32.259Z,23.51
2016-05-05T11:57:32.465Z,23.65
2016-05-05T11:58:32.358Z,23.37
2016-05-05T11:59:32.564Z,23.61
2016-05-05T12:00:32.597Z,24.02
2016-05-05T12:01:32.663Z,23.61
2016-05-05T12:02:32.712Z,23.46
2016-05-05T12:03:32.762Z,23.91
2016-05-05T12:04:32.640Z,23.37
2016-05-05T12:05:32.861Z,21.93
2016-05-05T12:06:32.911Z,21.99
2016-05-05T12:07:32.960Z,23.23
2016-05-05T12:08:33.010Z,22.9
2016-05-05T12:09:32.763Z,22.13
2016-05-05T12:10:33.125Z,21.98
2016-05-05T12:11:33.158Z,22.02
2016-05-05T12:12:33.052Z,22.99
2016-05-05T12:13:33.257Z,22.63
2016-05-05T12:14:33.323Z,22.81
2016-05-05T12:15:33.059Z,22.32
2016-05-05T12:16:33.422Z,21.98
2016-05-05T12:17:33.332Z,22.2
2016-05-05T12:18:33.521Z,22.23
2016-05-05T12:19:33.415Z,22.7
2016-05-05T12:20:33.464Z,22.54
2016-05-05T12:21:33.670Z,22.08
2016-05-05T12:22:33.719Z,22.66
2016-05-05T12:23:33.753Z,22.93
2016-05-05T12:24:34.335Z,23.24
2016-05-05T12:25:33.868Z,22.72
2016-05-05T12:26:33.918Z,23.09
2016-05-05T12:27:34.108Z,23.02
2016-05-05T12:28:34.017Z,23.39
2016-05-05T12:29:33.909Z,23.13
2016-05-05T12:30:34.117Z,23.09
2016-05-05T12:31:34.165Z,23.44
2016-05-05T12:32:34.058Z,23.8
2016-05-05T12:33:34.280Z,23.58
2016-05-05T12:34:34.314Z,23.47
2016-05-05T12:35:34.363Z,23.41
2016-05-05T12:36:34.272Z,22.75
2016-05-05T12:37:34.478Z,22.5
2016-05-05T12:38:34.528Z,22.66
2016-05-05T12:39:34.999Z,22.25
2016-05-05T12:40:34.643Z,21.98
2016-05-05T12:41:34.661Z,21.37
2016-05-05T12:42:34.554Z,21.43
2016-05-05T12:43:34.760Z,21.52
2016-05-05T12:44:34.654Z,20.95
2016-05-05T12:45:34.860Z,21.03
2016-05-05T12:46:34.909Z,21.21
2016-05-05T12:47:34.802Z,20.95
2016-05-05T12:48:35.024Z,21.14
2016-05-05T12:49:35.073Z,21.69
2016-05-05T12:50:35.107Z,22.02
2016-05-05T12:51:35.156Z,21.96
2016-05-05T12:52:35.206Z,21.85
2016-05-05T12:53:35.256Z,22.26
2016-05-05T12:54:36.009Z,22.55
2016-05-05T12:55:35.621Z,22.93
2016-05-05T12:56:35.389Z,23.1
2016-05-05T12:57:35.438Z,22.76
2016-05-05T12:58:35.487Z,22.17
2016-05-05T12:59:35.538Z,22.23
2016-05-05T13:00:35.572Z,22.06
2016-05-05T13:01:35.637Z,22.83
2016-05-05T13:02:35.686Z,23.46
2016-05-05T13:03:35.564Z,23.5
2016-05-05T13:04:35.770Z,23.62
2016-05-05T13:05:35.819Z,23.68
2016-05-05T13:06:35.869Z,23.03
2016-05-05T13:07:35.919Z,23.36
2016-05-05T13:08:35.984Z,23.84